createdAt,value
2023-04-23T00:00:25.767Z,97909.75
2023-04-23T00:02:54.407Z,97906.25
2023-04-23T00:05:23.414Z,97912.25
2023-04-23T00:07:50.536Z,97907.13
2023-04-23T00:10:18.302Z,97907.94
2023-04-23T00:12:45.940Z,97907.03
2023-04-23T00:15:14.242Z,97912.50
2023-04-23T00:17:41.284Z,97910.97
2023-04-23T00:20:09.318Z,97903.13
2023-04-23T00:22:36.585Z,97905.03
2023-04-23T00:25:03.958Z,97905.81
2023-04-23T00:27:31.022Z,97899.75
2023-04-23T00:29:58.190Z,97902.81
2023-04-23T00:32:25.221Z,97903.88
2023-04-23T00:34:52.378Z,97902.63
2023-04-23T00:37:19.430Z,97902.66
2023-04-23T00:40:54.594Z,97899.91
2023-04-23T00:43:21.603Z,97901.47
2023-04-23T00:45:49.507Z,97894.69
2023-04-23T00:48:16.927Z,97903.25
2023-04-23T00:50:43.931Z,97902.88
2023-04-23T00:53:11.077Z,97894.69
2023-04-23T00:55:38.216Z,97903.13
2023-04-23T00:58:06.952Z,97897.22
2023-04-23T01:00:40.077Z,97901.13
2023-04-23T01:03:07.309Z,97896.94
2023-04-23T01:05:34.462Z,97905.38
2023-04-23T01:08:01.549Z,97899.91
2023-04-23T01:10:28.599Z,97899.44
2023-04-23T01:12:55.662Z,97908.56
2023-04-23T01:15:22.660Z,97900.28
2023-04-23T01:17:49.861Z,97900.03
2023-04-23T01:20:17.554Z,97895.31
2023-04-23T01:22:44.606Z,97896.00
2023-04-23T01:25:11.751Z,97898.13
2023-04-23T01:27:39.196Z,97896.00
2023-04-23T01:30:07.711Z,97891.53
2023-04-23T01:32:35.585Z,97898.38
2023-04-23T01:35:04.708Z,97901.13
2023-04-23T01:37:33.506Z,97901.81
2023-04-23T01:40:01.208Z,97910.97
2023-04-23T01:42:28.457Z,97904.91
2023-04-23T01:44:55.587Z,97910.00
2023-04-23T01:47:22.858Z,97907.66
2023-04-23T01:49:50.064Z,97903.13
2023-04-23T01:52:17.072Z,97898.50
2023-04-23T01:54:44.244Z,97904.19
2023-04-23T01:57:11.493Z,97909.06
2023-04-23T01:59:40.509Z,97906.22
2023-04-23T02:02:11.172Z,97911.06
2023-04-23T02:04:41.248Z,97918.78
2023-04-23T02:07:09.130Z,97921.50
2023-04-23T02:09:36.174Z,97911.41
2023-04-23T02:12:03.347Z,97914.00
2023-04-23T02:14:30.561Z,97916.13
2023-04-23T02:16:57.932Z,97926.16
2023-04-23T02:19:25.092Z,97921.44
2023-04-23T02:21:52.225Z,97921.78
2023-04-23T02:24:19.295Z,97918.03
2023-04-23T02:26:47.544Z,97920.72
2023-04-23T02:29:15.735Z,97921.19
2023-04-23T02:31:42.832Z,97920.72
2023-04-23T02:34:09.876Z,97919.66
2023-04-23T02:36:36.944Z,97917.41
2023-04-23T02:39:04.289Z,97918.47
2023-04-23T02:41:31.404Z,97913.00
2023-04-23T02:43:58.684Z,97921.16
2023-04-23T02:46:25.746Z,97920.06
2023-04-23T02:48:52.762Z,97919.50
2023-04-23T02:51:19.882Z,97921.06
2023-04-23T02:53:47.008Z,97917.03
2023-04-23T02:56:14.083Z,97916.47
2023-04-23T02:58:41.206Z,97918.34
2023-04-23T03:01:08.284Z,97918.69
2023-04-23T03:03:35.770Z,97918.22
2023-04-23T03:06:06.823Z,97916.47
2023-04-23T03:08:34.085Z,97918.22
2023-04-23T03:11:01.077Z,97921.13
2023-04-23T03:13:28.392Z,97927.22
2023-04-23T03:15:56.269Z,97924.97
2023-04-23T03:18:23.449Z,97925.41
2023-04-23T03:20:53.444Z,97928.22
2023-04-23T03:23:20.572Z,97922.41
2023-04-23T03:25:48.547Z,97928.81
2023-04-23T03:28:15.714Z,97923.63
2023-04-23T03:30:43.141Z,97928.34
2023-04-23T03:33:10.212Z,97918.31
2023-04-23T03:35:37.755Z,97925.44
2023-04-23T03:38:09.459Z,97924.56
2023-04-23T03:40:37.196Z,97931.13
2023-04-23T03:43:06.905Z,97932.44
2023-04-23T03:45:53.895Z,97930.66
2023-04-23T03:48:21.899Z,97933.13
2023-04-23T03:50:49.533Z,97938.91
2023-04-23T03:53:31.986Z,97941.19
2023-04-23T03:56:17.848Z,97942.25
2023-04-23T03:58:54.503Z,97937.09
2023-04-23T04:01:22.495Z,97941.91
2023-04-23T04:03:50.915Z,97946.84
2023-04-23T04:06:18.068Z,97950.63
2023-04-23T04:08:45.107Z,97951.56
2023-04-23T04:11:12.166Z,97964.03
2023-04-23T04:13:39.169Z,97968.91
2023-04-23T04:16:06.579Z,97963.34
2023-04-23T04:18:33.700Z,97957.66
2023-04-23T04:21:01.020Z,97968.56
2023-04-23T04:23:28.804Z,97965.59
2023-04-23T04:25:57.827Z,97971.84
2023-04-23T04:28:25.452Z,97970.38
2023-04-23T04:30:57.779Z,97971.34
2023-04-23T04:33:26.135Z,97976.88
2023-04-23T04:35:54.907Z,97981.06
2023-04-23T04:38:22.424Z,97973.41
2023-04-23T04:40:50.670Z,97972.22
2023-04-23T04:43:18.585Z,97978.78
2023-04-23T04:45:45.601Z,97980.31
2023-04-23T04:48:12.705Z,97994.97
2023-04-23T04:50:39.895Z,97982.41
2023-04-23T04:53:06.870Z,97987.34
2023-04-23T04:55:33.893Z,97984.69
2023-04-23T04:58:00.944Z,97996.69
2023-04-23T05:00:29.880Z,97995.00
2023-04-23T05:03:00.102Z,97995.38
2023-04-23T05:05:27.900Z,97997.91
2023-04-23T05:07:55.237Z,97985.03
2023-04-23T05:10:22.305Z,97986.22
2023-04-23T05:12:52.093Z,97986.25
2023-04-23T05:15:19.331Z,97987.94
2023-04-23T05:17:46.532Z,97990.50
2023-04-23T05:20:14.435Z,97991.50
2023-04-23T05:22:42.807Z,97992.91
2023-04-23T05:25:12.264Z,97995.84
2023-04-23T05:27:40.029Z,97988.38
2023-04-23T05:30:09.602Z,98001.97
2023-04-23T05:32:37.218Z,98001.44
2023-04-23T05:35:05.051Z,97998.41
2023-04-23T05:37:32.185Z,97999.09
2023-04-23T05:43:12.827Z,97998.13
2023-04-23T05:45:39.886Z,97996.47
2023-04-23T05:48:07.059Z,98001.81
2023-04-23T05:50:34.058Z,98001.19
2023-04-23T05:53:01.105Z,97995.22
2023-04-23T05:55:28.161Z,98005.28
2023-04-23T05:57:55.135Z,98003.00
2023-04-23T06:00:22.209Z,97999.72
2023-04-23T06:02:49.559Z,97997.44
2023-04-23T06:05:16.973Z,98003.88
2023-04-23T06:07:44.099Z,98006.19
2023-04-23T06:10:43.652Z,98003.41
2023-04-23T06:13:11.232Z,98001.97
2023-04-23T06:15:38.818Z,98008.75
2023-04-23T06:18:06.347Z,98005.13
2023-04-23T06:20:33.433Z,98007.91
2023-04-23T06:23:00.951Z,98010.16
2023-04-23T06:25:27.947Z,98002.81
2023-04-23T06:27:54.962Z,98007.81
2023-04-23T06:30:25.613Z,98001.38
2023-04-23T06:32:53.311Z,98010.94
2023-04-23T06:35:20.751Z,98005.66
2023-04-23T06:37:47.735Z,98005.06
2023-04-23T06:40:15.158Z,98006.59
2023-04-23T06:42:42.818Z,98009.00
2023-04-23T06:45:17.861Z,98007.34
2023-04-23T06:47:45.371Z,98014.91
2023-04-23T06:50:12.486Z,98001.34
2023-04-23T06:52:39.561Z,98000.09
2023-04-23T06:55:07.446Z,98009.84
2023-04-23T06:57:34.455Z,98013.97
2023-04-23T07:00:01.549Z,98013.81
2023-04-23T07:02:34.837Z,98016.09
2023-04-23T07:05:34.090Z,98018.56
2023-04-23T07:08:01.223Z,98028.81
2023-04-23T07:10:28.486Z,98027.72
2023-04-23T07:12:55.529Z,98022.66
2023-04-23T07:15:22.752Z,98022.47
2023-04-23T07:17:49.873Z,98023.31
2023-04-23T07:20:16.953Z,98028.53
2023-04-23T07:22:44.454Z,98021.50
2023-04-23T07:25:11.558Z,98020.56
2023-04-23T07:27:38.594Z,98024.97
2023-04-23T07:30:06.708Z,98021.25
2023-04-23T07:32:33.762Z,98026.50
2023-04-23T07:35:00.866Z,98017.22
2023-04-23T07:37:27.989Z,98020.28
2023-04-23T07:39:55.041Z,98014.91
2023-04-23T07:42:22.114Z,98009.47
2023-04-23T07:44:49.127Z,98020.22
2023-04-23T07:47:16.116Z,98018.47
2023-04-23T07:49:43.906Z,98020.91
2023-04-23T07:52:11.612Z,98016.75
2023-04-23T07:54:38.728Z,98017.72
2023-04-23T07:57:05.939Z,98019.47
2023-04-23T07:59:33.052Z,98011.25
2023-04-23T08:02:00.177Z,98012.84
2023-04-23T08:04:27.447Z,98012.47
2023-04-23T08:06:54.710Z,98011.03
2023-04-23T08:09:21.814Z,98016.13
2023-04-23T08:11:48.940Z,98001.03
2023-04-23T08:14:16.126Z,98002.66
2023-04-23T08:16:43.577Z,98007.97
2023-04-23T08:19:10.653Z,98006.66
2023-04-23T08:21:39.171Z,98011.00
2023-04-23T08:24:08.099Z,98001.59
2023-04-23T08:26:35.247Z,98003.19
2023-04-23T08:29:03.439Z,97994.53
2023-04-23T08:31:30.621Z,97999.78
2023-04-23T08:33:58.107Z,97998.81
2023-04-23T08:36:26.284Z,97993.78
2023-04-23T08:38:53.326Z,97998.97
2023-04-23T08:41:23.941Z,98002.31
2023-04-23T08:44:02.633Z,98011.34
2023-04-23T08:46:33.088Z,97999.41
2023-04-23T08:49:03.091Z,97998.28
2023-04-23T08:51:30.993Z,98001.47
2023-04-23T08:54:03.105Z,98016.66
2023-04-23T08:56:30.741Z,98013.91
2023-04-23T08:58:58.899Z,98018.84
2023-04-23T09:01:26.057Z,98023.59
2023-04-23T09:03:54.252Z,98043.34
2023-04-23T09:06:22.073Z,98055.00
2023-04-23T09:08:49.231Z,98041.31
2023-04-23T09:11:18.263Z,98051.34
2023-04-23T09:13:45.830Z,98059.91
2023-04-23T09:16:12.948Z,98055.00
2023-04-23T09:18:40.131Z,98040.78
2023-04-23T09:21:07.661Z,98049.34
2023-04-23T09:23:34.910Z,98046.72
2023-04-23T09:26:06.668Z,98037.22
2023-04-23T09:28:37.921Z,98042.03
2023-04-23T09:31:08.261Z,98041.63
2023-04-23T09:33:36.485Z,98042.59
2023-04-23T09:36:15.755Z,98032.25
2023-04-23T09:38:42.759Z,98013.97
2023-04-23T09:41:29.900Z,98014.91
2023-04-23T10:16:35.589Z,97993.97
2023-04-23T10:19:13.589Z,97986.38
2023-04-23T10:21:50.413Z,97979.84
2023-04-23T10:24:23.400Z,97979.69
2023-04-23T10:26:54.192Z,97981.06
2023-04-23T10:29:30.980Z,97977.91
2023-04-23T10:32:00.529Z,97969.53
2023-04-23T10:34:29.355Z,97971.88
2023-04-23T10:36:57.705Z,97975.78
2023-04-23T10:39:29.993Z,97974.25
2023-04-23T10:41:59.002Z,97972.53
2023-04-23T10:47:13.427Z,97968.72
2023-04-23T10:49:40.942Z,97973.28
2023-04-23T10:52:20.026Z,97967.72
2023-04-23T10:54:50.711Z,97964.34
2023-04-23T10:57:17.709Z,97969.03
2023-04-23T10:59:56.478Z,97971.75
2023-04-23T11:02:24.873Z,97970.94
2023-04-23T11:04:57.480Z,97962.53
2023-04-23T11:07:32.967Z,97969.50
2023-04-23T11:10:11.188Z,97964.41
2023-04-23T11:12:39.914Z,97967.47
2023-04-23T11:15:12.374Z,97956.47
2023-04-23T11:17:39.353Z,97960.78
2023-04-23T11:20:14.274Z,97960.41
2023-04-23T11:22:48.903Z,97957.13
2023-04-23T11:25:28.705Z,97947.28
2023-04-23T11:27:58.683Z,97955.38
2023-04-23T11:30:30.610Z,97955.91
2023-04-23T11:33:00.418Z,97947.63
2023-04-23T11:35:28.990Z,97948.19
2023-04-23T11:37:57.210Z,97955.97
2023-04-23T11:40:24.492Z,97955.66
2023-04-23T11:42:53.894Z,97947.13
2023-04-23T11:45:29.031Z,97953.78
2023-04-23T11:47:59.177Z,97952.41
2023-04-23T11:50:31.164Z,97957.84
2023-04-23T11:52:58.784Z,97957.09
2023-04-23T11:55:26.667Z,97944.50
2023-04-23T11:57:53.750Z,97955.84
2023-04-23T12:00:23.506Z,97955.38
2023-04-23T12:02:52.382Z,97939.81
2023-04-23T12:05:29.776Z,97947.31
2023-04-23T12:08:20.536Z,97939.44
2023-04-23T12:10:52.025Z,97934.97
2023-04-23T12:13:36.108Z,97936.69
2023-04-23T12:16:05.313Z,97930.47
2023-04-23T12:18:33.548Z,97922.78
2023-04-23T12:21:07.939Z,97920.25
2023-04-23T12:23:36.746Z,97920.00
2023-04-23T12:26:04.658Z,97921.97
2023-04-23T12:28:31.760Z,97925.53
2023-04-23T12:31:03.103Z,97921.47
2023-04-23T12:33:31.186Z,97905.81
2023-04-23T12:35:58.627Z,97905.97
2023-04-23T12:38:27.775Z,97907.72
2023-04-23T12:40:56.818Z,97894.34
2023-04-23T12:43:25.032Z,97895.53
2023-04-23T12:45:53.120Z,97893.97
2023-04-23T12:48:20.282Z,97891.00
2023-04-23T12:50:48.499Z,97876.59
2023-04-23T12:53:15.956Z,97890.38
2023-04-23T12:55:44.425Z,97879.34
2023-04-23T12:58:11.640Z,97883.09
2023-04-23T13:00:39.130Z,97875.91
2023-04-23T13:03:06.302Z,97877.88
2023-04-23T13:05:33.514Z,97880.19
2023-04-23T13:08:00.484Z,97880.16
2023-04-23T13:10:27.989Z,97875.63
2023-04-23T13:12:55.206Z,97882.31
2023-04-23T13:15:22.206Z,97878.03
2023-04-23T13:17:49.297Z,97879.94
2023-04-23T13:20:16.304Z,97871.69
2023-04-23T13:22:43.301Z,97881.53
2023-04-23T13:25:10.723Z,97883.22
2023-04-23T13:27:37.807Z,97880.69
2023-04-23T13:30:06.178Z,97873.50
2023-04-23T13:32:33.475Z,97870.84
2023-04-23T13:35:02.973Z,97871.16
2023-04-23T13:37:31.562Z,97874.38
2023-04-23T13:39:58.656Z,97878.78
2023-04-23T13:42:25.761Z,97868.28
2023-04-23T13:44:52.926Z,97878.06
2023-04-23T13:47:20.030Z,97878.78
2023-04-23T13:49:48.085Z,97871.13
2023-04-23T13:52:15.159Z,97870.09
2023-04-23T13:54:42.504Z,97864.66
2023-04-23T13:57:09.715Z,97871.59
2023-04-23T13:59:36.765Z,97870.97
2023-04-23T14:02:03.890Z,97868.25
2023-04-23T14:04:31.231Z,97867.63
2023-04-23T14:06:58.305Z,97874.44
2023-04-23T14:09:25.433Z,97872.06
2023-04-23T14:11:52.572Z,97871.41
2023-04-23T14:14:19.689Z,97872.16
2023-04-23T14:16:46.755Z,97880.41
2023-04-23T14:19:13.937Z,97880.06
2023-04-23T14:21:41.798Z,97885.13
2023-04-23T14:24:16.916Z,97885.31
2023-04-23T14:26:49.155Z,97881.81
2023-04-23T14:29:28.045Z,97882.88
2023-04-23T14:31:55.165Z,97881.97
2023-04-23T14:34:22.588Z,97876.19
2023-04-23T14:36:49.889Z,97883.13
2023-04-23T14:39:17.227Z,97880.19
2023-04-23T14:41:44.849Z,97875.44
2023-04-23T14:44:11.973Z,97878.63
2023-04-23T14:46:39.097Z,97877.38
2023-04-23T14:49:06.631Z,97880.75
2023-04-23T14:51:33.714Z,97881.22
2023-04-23T14:54:00.870Z,97881.94
2023-04-23T14:56:27.977Z,97877.63
2023-04-23T14:58:55.085Z,97887.34
2023-04-23T15:01:22.167Z,97881.25
2023-04-23T15:03:49.538Z,97876.91
2023-04-23T15:06:16.764Z,97874.41
2023-04-23T15:08:43.771Z,97871.47
2023-04-23T15:11:15.654Z,97875.22
2023-04-23T15:13:42.649Z,97883.69
2023-04-23T15:16:36.502Z,97877.72
2023-04-23T15:19:11.791Z,97878.72
2023-04-23T15:21:39.396Z,97874.53
2023-04-23T15:24:07.983Z,97875.66
2023-04-23T15:26:36.452Z,97881.00
2023-04-23T15:29:04.794Z,97883.25
2023-04-23T15:31:32.142Z,97880.22
2023-04-23T15:33:59.264Z,97874.19
2023-04-23T15:36:26.424Z,97869.00
2023-04-23T15:38:53.401Z,97875.78
2023-04-23T15:41:20.377Z,97872.44
2023-04-23T15:43:48.948Z,97874.19
2023-04-23T15:46:16.025Z,97879.84
2023-04-23T15:48:44.142Z,97877.06
2023-04-23T15:51:11.189Z,97884.50
2023-04-23T15:53:38.303Z,97884.09
2023-04-23T15:56:05.412Z,97876.72
2023-04-23T15:58:32.540Z,97882.22
2023-04-23T16:00:59.602Z,97882.75
2023-04-23T16:03:26.897Z,97876.41
2023-04-23T16:05:54.179Z,97875.91
2023-04-23T16:08:22.081Z,97870.50
2023-04-23T16:10:49.085Z,97873.63
2023-04-23T16:13:16.143Z,97869.78
2023-04-23T16:15:43.275Z,97872.41
2023-04-23T16:18:10.394Z,97872.06
2023-04-23T16:20:37.451Z,97877.06
2023-04-23T16:23:04.541Z,97870.00
2023-04-23T16:25:31.603Z,97868.88
2023-04-23T16:27:58.988Z,97861.63
2023-04-23T16:30:26.106Z,97867.38
2023-04-23T16:32:53.252Z,97872.81
2023-04-23T16:35:20.514Z,97866.22
2023-04-23T16:37:47.586Z,97869.22
2023-04-23T16:40:15.884Z,97863.19
2023-04-23T16:42:43.668Z,97866.50
2023-04-23T16:45:11.574Z,97866.50
2023-04-23T16:47:38.801Z,97869.63
2023-04-23T16:50:06.452Z,97867.50
2023-04-23T16:52:33.494Z,97860.09
2023-04-23T16:55:00.771Z,97859.44
2023-04-23T16:57:28.375Z,97865.72
2023-04-23T16:59:55.361Z,97866.50
2023-04-23T17:02:22.375Z,97866.38
2023-04-23T17:04:49.775Z,97869.94
2023-04-23T17:07:17.242Z,97873.72
2023-04-23T17:09:44.402Z,97888.75
2023-04-23T17:12:11.566Z,97880.81
2023-04-23T17:14:38.653Z,97879.44
2023-04-23T17:17:05.746Z,97881.47
2023-04-23T17:19:33.092Z,97885.06
2023-04-23T17:22:01.308Z,97883.28
2023-04-23T17:24:28.332Z,97887.06
2023-04-23T17:26:55.402Z,97882.97
2023-04-23T17:29:22.874Z,97881.19
2023-04-23T17:31:50.437Z,97884.84
2023-04-23T17:34:17.473Z,97883.84
2023-04-23T17:36:44.509Z,97877.81
2023-04-23T17:39:11.705Z,97883.28
2023-04-23T17:41:38.800Z,97882.91
2023-04-23T17:44:05.895Z,97887.41
2023-04-23T17:46:33.083Z,97892.06
2023-04-23T17:49:00.389Z,97892.34
2023-04-23T17:51:27.618Z,97891.09
2023-04-23T17:53:54.925Z,97894.22
2023-04-23T17:56:22.292Z,97899.50
2023-04-23T17:58:49.448Z,97898.91
2023-04-23T18:01:17.867Z,97905.31
2023-04-23T18:03:45.393Z,97905.22
2023-04-23T18:06:12.519Z,97903.97
2023-04-23T18:08:41.914Z,97899.19
2023-04-23T18:11:09.744Z,97892.31
2023-04-23T18:13:36.838Z,97897.19
2023-04-23T18:16:04.011Z,97899.31
2023-04-23T18:18:31.011Z,97906.19
2023-04-23T18:20:58.283Z,97894.91
2023-04-23T18:24:08.141Z,97897.69
2023-04-23T18:26:35.204Z,97904.63
2023-04-23T18:29:02.243Z,97895.34
2023-04-23T18:31:29.552Z,97909.53
2023-04-23T18:34:03.850Z,97900.94
2023-04-23T18:36:33.132Z,97904.91
2023-04-23T18:39:00.426Z,97900.66
2023-04-23T18:41:31.062Z,97898.47
2023-04-23T18:44:00.166Z,97911.09
2023-04-23T18:46:30.361Z,97896.66
2023-04-23T18:49:07.210Z,97907.81
2023-04-23T18:51:43.208Z,97912.16
2023-04-23T18:54:14.957Z,97903.28
2023-04-23T18:56:42.238Z,97907.91
2023-04-23T18:59:09.444Z,97904.28
2023-04-23T19:01:36.667Z,97915.22
2023-04-23T19:04:03.884Z,97907.81
2023-04-23T19:06:31.535Z,97899.41
2023-04-23T19:08:59.297Z,97905.75
2023-04-23T19:11:30.345Z,97916.47
2023-04-23T19:13:57.499Z,97914.44
2023-04-23T19:16:24.545Z,97912.56
2023-04-23T19:18:51.584Z,97914.28
2023-04-23T19:21:18.714Z,97913.03
2023-04-23T19:23:46.182Z,97907.22
2023-04-23T19:26:46.042Z,97904.41
2023-04-23T19:29:13.247Z,97897.41
2023-04-23T19:31:40.358Z,97905.38
2023-04-23T19:34:07.733Z,97897.31
2023-04-23T19:36:34.949Z,97896.59
2023-04-23T19:39:02.215Z,97896.13
2023-04-23T19:41:29.306Z,97893.66
2023-04-23T19:43:56.487Z,97894.78
2023-04-23T19:46:23.541Z,97888.78
2023-04-23T19:48:50.591Z,97890.81
2023-04-23T19:51:19.753Z,97892.38
2023-04-23T19:53:46.809Z,97886.91
2023-04-23T19:56:15.266Z,97887.13
2023-04-23T19:58:42.732Z,97886.16
2023-04-23T20:01:10.767Z,97890.59
2023-04-23T20:03:38.051Z,97893.22
2023-04-23T20:06:05.218Z,97891.75
2023-04-23T20:08:42.051Z,97894.47
2023-04-23T20:11:11.924Z,97889.44
2023-04-23T20:13:38.993Z,97890.31
2023-04-23T20:16:05.966Z,97886.91
2023-04-23T20:18:35.756Z,97886.22
2023-04-23T20:21:02.875Z,97886.31
2023-04-23T20:23:29.871Z,97885.09
2023-04-23T20:26:28.452Z,97884.28
2023-04-23T20:28:55.692Z,97876.31
2023-04-23T20:31:22.903Z,97879.31
2023-04-23T20:33:50.025Z,97873.66
2023-04-23T20:36:17.214Z,97874.81
2023-04-23T20:39:53.578Z,97881.41
2023-04-23T20:42:21.434Z,97878.00
2023-04-23T20:44:49.090Z,97869.78
2023-04-23T20:47:16.596Z,97880.28
2023-04-23T20:49:44.086Z,97877.72
2023-04-23T20:52:13.596Z,97872.69
2023-04-23T20:54:40.754Z,97868.09
2023-04-23T20:57:07.934Z,97873.91
2023-04-23T20:59:35.054Z,97873.22
2023-04-23T21:02:02.136Z,97864.97
2023-04-23T21:04:29.716Z,97862.28
2023-04-23T21:06:56.990Z,97863.25
2023-04-23T21:09:24.023Z,97864.06
2023-04-23T21:11:51.267Z,97868.13
2023-04-23T21:14:18.425Z,97866.03
2023-04-23T21:16:45.456Z,97862.72
2023-04-23T21:20:21.459Z,97868.81
2023-04-23T21:22:48.531Z,97863.47
2023-04-23T21:25:15.513Z,97864.06
2023-04-23T21:27:46.005Z,97866.09
2023-04-23T21:30:35.298Z,97875.47
2023-04-23T21:33:02.335Z,97869.16
2023-04-23T21:35:29.621Z,97861.09
2023-04-23T21:37:56.675Z,97867.41
2023-04-23T21:40:29.262Z,97868.41
2023-04-23T21:42:56.418Z,97867.78
2023-04-23T21:45:24.041Z,97863.41
2023-04-23T21:47:51.725Z,97868.06
2023-04-23T21:50:19.135Z,97858.66
2023-04-23T21:52:46.267Z,97861.69
2023-04-23T21:55:13.837Z,97857.91
2023-04-23T21:57:40.850Z,97854.47
2023-04-23T22:00:11.393Z,97860.53
2023-04-23T22:02:46.764Z,97854.44
2023-04-23T22:05:17.175Z,97848.69
2023-04-23T22:07:44.752Z,97831.31
2023-04-23T22:10:13.239Z,97838.59
2023-04-23T22:12:41.476Z,97825.66
2023-04-23T22:15:11.032Z,97829.53
2023-04-23T22:17:39.151Z,97827.50
2023-04-23T22:20:08.036Z,97823.81
2023-04-23T22:22:36.207Z,97819.66
2023-04-23T22:25:07.938Z,97812.19
2023-04-23T22:27:36.590Z,97808.63
2023-04-23T22:30:08.147Z,97815.84
2023-04-23T22:32:36.277Z,97809.72
2023-04-23T22:35:04.075Z,97809.53
2023-04-23T22:37:34.316Z,97804.06
2023-04-23T22:40:01.704Z,97806.06
2023-04-23T22:42:28.693Z,97808.38
2023-04-23T22:44:55.755Z,97800.72
2023-04-23T22:47:22.952Z,97799.06
2023-04-23T22:49:50.197Z,97801.09
2023-04-23T22:52:17.420Z,97799.44
2023-04-23T22:55:54.444Z,97803.84
2023-04-23T22:58:21.572Z,97802.00
2023-04-23T23:00:48.692Z,97798.03
2023-04-23T23:03:15.917Z,97804.53
2023-04-23T23:05:43.126Z,97797.59
2023-04-23T23:08:10.212Z,97792.63
2023-04-23T23:10:37.244Z,97804.81
2023-04-23T23:13:04.539Z,97804.66
2023-04-23T23:15:31.743Z,97803.69
2023-04-23T23:17:58.866Z,97800.63
2023-04-23T23:20:26.606Z,97794.97
2023-04-23T23:22:53.787Z,97796.00
2023-04-23T23:25:20.970Z,97797.91
2023-04-23T23:27:47.956Z,97795.38
2023-04-23T23:30:15.758Z,97786.75
2023-04-23T23:32:42.857Z,97788.91
2023-04-23T23:35:10.118Z,97789.59
2023-04-23T23:37:37.258Z,97792.72
2023-04-23T23:40:05.846Z,97793.53
2023-04-23T23:42:32.894Z,97785.50
2023-04-23T23:45:31.976Z,97786.50
2023-04-23T23:47:59.570Z,97783.59
2023-04-23T23:50:26.723Z,97778.41
2023-04-23T23:52:54.493Z,97773.44
2023-04-23T23:55:21.564Z,97769.97
2023-04-23T23:57:48.629Z,97768.44
